createdAt,value
2022-09-16T00:01:52.981Z,43.25
2022-09-16T00:04:20.622Z,44.65
2022-09-16T00:06:47.298Z,57.65
2022-09-16T00:09:13.970Z,52.80
2022-09-16T00:11:40.601Z,57.30
2022-09-16T00:14:07.494Z,52.85
2022-09-16T00:16:34.274Z,45.25
2022-09-16T00:19:02.013Z,43.67
2022-09-16T00:21:29.503Z,45.28
2022-09-16T00:23:56.826Z,42.15
2022-09-16T00:26:23.650Z,44.10
2022-09-16T00:28:50.885Z,42.92
2022-09-16T00:31:18.301Z,40.92
2022-09-16T00:33:45.172Z,48.05
2022-09-16T00:36:14.832Z,49.08
2022-09-16T00:38:42.121Z,49.30
2022-09-16T00:41:09.558Z,32.03
2022-09-16T00:43:49.845Z,34.17
2022-09-16T00:46:17.710Z,25.95
2022-09-16T00:48:44.774Z,26.52
2022-09-16T00:51:12.098Z,29.65
2022-09-16T00:53:43.171Z,26.45
2022-09-16T00:56:12.709Z,28.77
2022-09-16T00:58:39.360Z,28.42
2022-09-16T01:01:06.046Z,27.73
2022-09-16T01:03:36.972Z,26.10
2022-09-16T01:06:03.888Z,27.58
2022-09-16T01:08:30.970Z,32.70
2022-09-16T01:10:58.053Z,35.45
2022-09-16T01:13:24.992Z,42.80
2022-09-16T01:16:01.274Z,26.92
2022-09-16T01:18:52.311Z,28.08
2022-09-16T01:21:32.191Z,26.77
2022-09-16T01:24:24.093Z,24.40
2022-09-16T01:27:09.039Z,25.92
2022-09-16T01:30:10.840Z,27.83
2022-09-16T01:32:40.369Z,20.02
2022-09-16T01:35:20.285Z,27.75
2022-09-16T01:38:13.140Z,20.83
2022-09-16T01:40:47.540Z,15.55
2022-09-16T01:43:54.972Z,18.90
2022-09-16T01:46:33.861Z,22.45
2022-09-16T01:49:08.953Z,17.83
2022-09-16T01:51:47.791Z,17.48
2022-09-16T01:54:41.637Z,20.65
2022-09-16T01:57:16.729Z,28.17
2022-09-16T01:59:59.332Z,16.27
2022-09-16T02:02:32.490Z,26.35
2022-09-16T02:05:01.666Z,26.50
2022-09-16T02:07:32.718Z,34.08
2022-09-16T02:10:07.599Z,36.63
2022-09-16T02:12:37.632Z,32.60
2022-09-16T02:15:09.425Z,39.70
2022-09-16T02:17:39.358Z,32.97
2022-09-16T02:20:09.432Z,31.45
2022-09-16T02:22:45.293Z,37.92
2022-09-16T02:25:13.583Z,38.15
2022-09-16T02:27:41.580Z,35.55
2022-09-16T02:30:11.198Z,41.17
2022-09-16T02:32:42.289Z,38.45
2022-09-16T02:35:10.951Z,40.88
2022-09-16T02:37:50.914Z,41.03
2022-09-16T02:40:22.267Z,41.70
2022-09-16T02:42:49.726Z,35.33
2022-09-16T02:45:16.797Z,35.75
2022-09-16T02:48:19.694Z,36.90
2022-09-16T02:51:03.614Z,37.72
2022-09-16T02:53:38.238Z,38.63
2022-09-16T02:56:16.069Z,32.38
2022-09-16T02:58:42.798Z,38.67
2022-09-16T03:01:12.029Z,31.17
2022-09-16T03:03:38.827Z,36.95
2022-09-16T03:06:17.877Z,31.67
2022-09-16T03:08:44.948Z,35.65
2022-09-16T03:11:46.029Z,36.03
2022-09-16T03:14:21.688Z,36.38
2022-09-16T03:16:52.330Z,35.88
2022-09-16T03:19:30.872Z,27.20
2022-09-16T03:22:16.636Z,29.83
2022-09-16T03:25:15.326Z,31.83
2022-09-16T03:27:57.192Z,29.02
2022-09-16T03:30:23.871Z,29.60
2022-09-16T03:32:57.185Z,27.80
2022-09-16T03:35:26.699Z,30.80
2022-09-16T03:37:58.378Z,27.67
2022-09-16T03:40:26.853Z,41.95
2022-09-16T03:42:53.621Z,33.70
2022-09-16T03:45:21.854Z,32.47
2022-09-16T03:47:50.094Z,29.75
2022-09-16T03:50:18.026Z,27.92
2022-09-16T03:52:44.903Z,28.45
2022-09-16T03:55:11.639Z,22.30
2022-09-16T03:57:38.801Z,28.20
2022-09-16T04:00:07.701Z,27.67
2022-09-16T04:05:01.059Z,25.50
2022-09-16T04:07:27.734Z,19.17
2022-09-16T04:09:54.361Z,20.90
2022-09-16T04:12:20.988Z,25.90
2022-09-16T04:14:47.614Z,22.48
2022-09-16T04:17:14.263Z,20.02
2022-09-16T04:19:40.898Z,19.95
2022-09-16T04:22:07.549Z,25.27
2022-09-16T04:24:34.162Z,24.55
2022-09-16T04:27:00.825Z,23.67
2022-09-16T04:29:27.882Z,24.45
2022-09-16T04:31:55.276Z,26.60
2022-09-16T04:34:21.930Z,22.35
2022-09-16T04:36:48.699Z,24.52
2022-09-16T04:39:15.503Z,26.90
2022-09-16T04:41:42.249Z,25.60
2022-09-16T04:44:10.482Z,25.00
2022-09-16T04:46:37.237Z,29.98
2022-09-16T04:49:04.010Z,30.38
2022-09-16T04:51:32.305Z,35.15
2022-09-16T04:54:00.199Z,37.13
2022-09-16T04:56:29.287Z,36.28
2022-09-16T04:58:58.601Z,39.00
2022-09-16T05:01:28.034Z,34.60
2022-09-16T05:03:57.354Z,41.53
2022-09-16T05:06:26.390Z,39.15
2022-09-16T05:08:54.341Z,42.58
2022-09-16T05:11:26.559Z,48.03
2022-09-16T05:13:53.458Z,35.30
2022-09-16T05:16:22.054Z,42.85
2022-09-16T05:21:18.318Z,42.35
2022-09-16T05:23:47.088Z,35.70
2022-09-16T05:26:17.223Z,43.25
2022-09-16T05:28:44.112Z,43.50
2022-09-16T05:31:20.822Z,38.50
2022-09-16T05:33:54.904Z,43.47
2022-09-16T05:36:22.014Z,35.58
2022-09-16T05:39:11.172Z,68.57
2022-09-16T05:41:35.631Z,46.38
2022-09-16T05:44:02.726Z,32.13
2022-09-16T05:46:29.711Z,38.38
2022-09-16T05:48:56.712Z,39.83
2022-09-16T05:51:24.158Z,38.63
2022-09-16T05:53:51.246Z,47.97
2022-09-16T05:56:29.219Z,41.00
2022-09-16T05:58:58.054Z,39.65
2022-09-16T06:01:27.354Z,52.22
2022-09-16T06:03:57.309Z,51.55
2022-09-16T06:06:35.456Z,40.63
2022-09-16T06:09:07.615Z,33.88
2022-09-16T06:11:37.612Z,40.08
2022-09-16T06:14:06.096Z,35.03
2022-09-16T06:16:33.424Z,34.03
2022-09-16T06:19:02.085Z,31.58
2022-09-16T06:21:29.458Z,29.85
2022-09-16T06:23:57.013Z,31.60
2022-09-16T06:26:25.254Z,34.80
2022-09-16T06:28:52.932Z,29.95
2022-09-16T06:31:21.544Z,27.17
2022-09-16T06:33:50.396Z,25.63
2022-09-16T06:36:25.765Z,34.92
2022-09-16T06:38:52.452Z,34.70
2022-09-16T06:41:20.442Z,30.52
2022-09-16T06:43:48.068Z,31.98
2022-09-16T06:46:17.050Z,33.05
2022-09-16T06:48:45.392Z,27.45
2022-09-16T06:51:14.910Z,37.75
2022-09-16T06:53:41.817Z,32.40
2022-09-16T06:56:13.688Z,30.85
2022-09-16T06:58:42.272Z,23.83
2022-09-16T07:03:41.237Z,25.58
2022-09-16T07:06:08.571Z,30.52
2022-09-16T07:08:36.760Z,31.75
2022-09-16T07:11:07.702Z,24.60
2022-09-16T07:13:34.690Z,25.00
2022-09-16T07:16:12.960Z,29.90
2022-09-16T07:18:41.601Z,31.88
2022-09-16T07:21:14.062Z,30.65
2022-09-16T07:23:41.303Z,24.25
2022-09-16T07:26:14.389Z,29.27
2022-09-16T07:28:42.092Z,51.53
2022-09-16T07:31:11.049Z,24.90
2022-09-16T07:33:39.855Z,28.75
2022-09-16T07:36:11.101Z,35.25
2022-09-16T07:38:38.030Z,27.63
2022-09-16T07:41:06.770Z,27.70
2022-09-16T07:43:33.566Z,21.85
2022-09-16T07:46:00.780Z,27.08
2022-09-16T07:48:34.672Z,26.55
2022-09-16T07:51:04.841Z,23.60
2022-09-16T07:53:32.209Z,29.13
2022-09-16T07:56:06.349Z,26.95
2022-09-16T07:58:33.464Z,28.33
2022-09-16T08:01:04.146Z,38.53
2022-09-16T08:03:33.008Z,29.90
2022-09-16T08:06:01.507Z,45.17
2022-09-16T08:10:55.980Z,30.08
2022-09-16T08:13:23.172Z,30.75
2022-09-16T08:15:49.947Z,29.05
2022-09-16T08:18:17.202Z,23.55
2022-09-16T08:20:43.830Z,24.63
2022-09-16T08:23:10.564Z,23.38
2022-09-16T08:25:37.342Z,36.30
2022-09-16T08:28:04.581Z,25.85
2022-09-16T08:30:31.448Z,33.50
2022-09-16T08:32:59.047Z,35.30
2022-09-16T08:35:26.664Z,40.58
2022-09-16T08:37:53.681Z,30.20
2022-09-16T08:40:23.414Z,27.25
2022-09-16T08:42:53.118Z,27.00
2022-09-16T08:45:29.098Z,37.42
2022-09-16T08:48:08.143Z,33.60
2022-09-16T08:50:41.344Z,35.20
2022-09-16T08:53:15.016Z,26.63
2022-09-16T08:55:46.916Z,24.75
2022-09-16T08:58:17.437Z,26.10
2022-09-16T09:00:46.910Z,28.13
2022-09-16T09:03:37.022Z,25.50
2022-09-16T09:06:22.860Z,28.80
2022-09-16T09:09:14.013Z,22.20
2022-09-16T09:12:28.010Z,29.75
2022-09-16T09:15:03.808Z,19.65
2022-09-16T09:17:49.403Z,23.45
2022-09-16T09:20:55.366Z,26.05
2022-09-16T09:23:47.995Z,22.02
2022-09-16T09:26:58.477Z,29.40
2022-09-16T09:29:43.851Z,28.27
2022-09-16T09:32:49.355Z,26.05
2022-09-16T09:36:02.856Z,25.83
2022-09-16T09:38:32.555Z,33.20
2022-09-16T09:41:06.273Z,27.23
2022-09-16T09:43:45.396Z,28.42
2022-09-16T09:46:35.957Z,28.35
2022-09-16T09:49:27.150Z,29.83
2022-09-16T09:52:04.741Z,24.63
2022-09-16T09:54:35.027Z,24.88
2022-09-16T09:57:29.363Z,20.95
2022-09-16T10:00:08.043Z,35.33
2022-09-16T10:02:35.488Z,26.83
2022-09-16T10:05:02.357Z,21.45
2022-09-16T10:07:29.179Z,28.92
2022-09-16T10:10:01.894Z,25.55
2022-09-16T10:12:34.559Z,31.50
2022-09-16T10:15:02.088Z,23.13
2022-09-16T10:17:31.960Z,28.00
2022-09-16T10:20:04.078Z,31.95
2022-09-16T10:22:32.689Z,25.33
2022-09-16T10:25:18.801Z,17.80
2022-09-16T10:28:00.108Z,26.02
2022-09-16T10:30:32.923Z,29.35
2022-09-16T10:33:14.137Z,32.00
2022-09-16T10:35:43.593Z,18.77
2022-09-16T10:38:13.160Z,20.60
2022-09-16T10:40:52.440Z,22.67
2022-09-16T10:43:19.353Z,23.10
2022-09-16T10:45:49.154Z,19.77
2022-09-16T10:48:18.245Z,17.88
2022-09-16T10:50:57.942Z,18.98
2022-09-16T10:53:28.797Z,24.00
2022-09-16T10:56:06.475Z,22.77
2022-09-16T10:58:33.469Z,19.60
2022-09-16T11:01:37.471Z,26.20
2022-09-16T11:04:24.269Z,16.75
2022-09-16T11:07:10.905Z,26.45
2022-09-16T11:09:55.720Z,20.38
2022-09-16T11:13:10.533Z,19.65
2022-09-16T11:15:56.965Z,18.98
2022-09-16T11:18:50.832Z,24.20
2022-09-16T11:21:44.940Z,26.58
2022-09-16T11:24:31.146Z,22.38
2022-09-16T11:27:16.377Z,23.02
2022-09-16T11:29:49.178Z,20.08
2022-09-16T11:32:18.592Z,21.92
2022-09-16T11:35:10.411Z,28.85
2022-09-16T11:37:45.770Z,23.35
2022-09-16T11:40:28.485Z,24.42
2022-09-16T11:43:14.045Z,23.65
2022-09-16T11:45:56.402Z,21.05
2022-09-16T11:48:38.933Z,21.30
2022-09-16T11:51:24.235Z,22.85
2022-09-16T11:54:09.827Z,24.00
2022-09-16T11:57:05.666Z,19.38
2022-09-16T11:59:57.468Z,19.73
2022-09-16T12:02:37.797Z,17.80
2022-09-16T12:05:19.410Z,19.85
2022-09-16T12:08:42.898Z,23.98
2022-09-16T12:13:43.134Z,22.38
2022-09-16T12:16:13.912Z,19.27
2022-09-16T12:18:44.625Z,24.70
2022-09-16T12:21:22.767Z,24.60
2022-09-16T12:23:54.063Z,20.65
2022-09-16T12:26:38.732Z,27.05
2022-09-16T12:29:31.515Z,20.05
2022-09-16T12:32:00.628Z,19.35
2022-09-16T12:34:33.605Z,22.45
2022-09-16T12:37:31.280Z,24.52
2022-09-16T12:39:57.977Z,23.08
2022-09-16T12:42:30.729Z,22.35
2022-09-16T12:45:13.106Z,30.02
2022-09-16T12:48:01.568Z,19.17
2022-09-16T12:51:02.872Z,30.55
2022-09-16T12:53:41.327Z,18.88
2022-09-16T12:56:21.266Z,18.02
2022-09-16T12:58:57.959Z,24.42
2022-09-16T13:01:44.917Z,27.55
2022-09-16T13:04:17.222Z,18.73
2022-09-16T13:06:52.495Z,21.33
2022-09-16T13:09:27.577Z,25.55
2022-09-16T13:15:02.638Z,19.48
2022-09-16T13:20:02.666Z,19.58
2022-09-16T13:22:37.764Z,21.00
2022-09-16T13:25:38.222Z,19.95
2022-09-16T13:28:26.918Z,22.55
2022-09-16T13:30:53.897Z,21.20
2022-09-16T13:33:29.152Z,27.10
2022-09-16T13:36:19.654Z,15.73
2022-09-16T13:38:54.601Z,20.60
2022-09-16T13:41:40.323Z,15.07
2022-09-16T13:44:39.157Z,15.65
2022-09-16T13:47:11.499Z,14.75
2022-09-16T13:49:53.738Z,17.38
2022-09-16T13:52:32.213Z,17.85
2022-09-16T13:55:12.468Z,19.67
2022-09-16T13:57:49.307Z,20.15
2022-09-16T14:00:21.852Z,44.85
2022-09-16T14:03:04.060Z,23.35
2022-09-16T14:05:48.911Z,37.58
2022-09-16T14:08:37.089Z,18.48
2022-09-16T14:11:35.112Z,18.92
2022-09-16T14:14:29.806Z,18.42
2022-09-16T14:17:04.331Z,22.73
2022-09-16T14:19:40.396Z,22.73
2022-09-16T14:22:17.870Z,19.85
2022-09-16T14:24:45.996Z,25.63
2022-09-16T14:27:20.986Z,26.08
2022-09-16T14:29:55.802Z,17.20
2022-09-16T14:32:25.436Z,18.17
2022-09-16T14:34:53.184Z,22.58
2022-09-16T14:37:20.769Z,18.42
2022-09-16T14:39:51.919Z,20.40
2022-09-16T14:42:21.917Z,14.02
2022-09-16T14:44:52.911Z,18.50
2022-09-16T14:47:47.247Z,16.05
2022-09-16T14:50:33.833Z,17.23
2022-09-16T14:53:02.923Z,18.17
2022-09-16T14:55:34.798Z,15.15
2022-09-16T14:58:02.130Z,19.00
2022-09-16T15:00:37.247Z,17.80
2022-09-16T15:03:14.298Z,27.48
2022-09-16T15:05:42.909Z,18.42
2022-09-16T15:10:51.898Z,18.58
2022-09-16T15:13:21.872Z,22.63
2022-09-16T15:16:02.438Z,18.52
2022-09-16T15:18:38.036Z,14.25
2022-09-16T15:21:21.279Z,34.60
2022-09-16T15:23:53.499Z,22.08
2022-09-16T15:26:25.059Z,21.98
2022-09-16T15:28:59.393Z,22.83
2022-09-16T15:31:40.952Z,22.23
2022-09-16T15:34:22.619Z,20.48
2022-09-16T15:36:51.983Z,19.05
2022-09-16T15:39:31.587Z,23.73
2022-09-16T15:42:12.823Z,15.60
2022-09-16T15:44:54.072Z,22.33
2022-09-16T15:47:30.811Z,19.38
2022-09-16T15:50:05.303Z,21.00
2022-09-16T15:52:35.583Z,21.55
2022-09-16T15:55:04.371Z,20.35
2022-09-16T15:57:31.235Z,20.98
2022-09-16T16:00:16.347Z,26.98
2022-09-16T16:02:56.327Z,22.02
2022-09-16T16:05:26.341Z,20.27
2022-09-16T16:08:05.100Z,23.88
2022-09-16T16:10:36.422Z,17.48
2022-09-16T16:13:04.822Z,20.80
2022-09-16T16:15:35.083Z,19.45
2022-09-16T16:18:04.799Z,21.73
2022-09-16T16:20:34.165Z,21.05
2022-09-16T16:23:01.934Z,22.33
2022-09-16T16:25:29.561Z,18.90
2022-09-16T16:27:56.186Z,19.88
2022-09-16T16:30:22.957Z,19.58
2022-09-16T16:32:49.845Z,18.60
2022-09-16T16:35:16.606Z,33.78
2022-09-16T16:37:47.371Z,29.02
2022-09-16T16:40:15.424Z,25.92
2022-09-16T16:42:43.867Z,26.55
2022-09-16T16:45:14.166Z,23.48
2022-09-16T16:47:41.641Z,21.92
2022-09-16T16:50:08.873Z,25.20
2022-09-16T16:52:35.511Z,19.70
2022-09-16T16:55:02.231Z,23.40
2022-09-16T16:57:28.880Z,19.17
2022-09-16T16:59:55.653Z,22.80
2022-09-16T17:02:22.479Z,25.20
2022-09-16T17:04:49.336Z,24.00
2022-09-16T17:07:32.479Z,61.47
2022-09-16T17:10:17.830Z,63.97
2022-09-16T17:12:45.356Z,52.38
2022-09-16T17:15:12.291Z,31.25
2022-09-16T17:17:40.566Z,26.00
2022-09-16T17:20:07.665Z,44.17
2022-09-16T17:22:34.502Z,29.30
2022-09-16T17:25:01.199Z,36.15
2022-09-16T17:27:28.019Z,37.40
2022-09-16T17:29:54.715Z,34.42
2022-09-16T17:32:21.813Z,40.90
2022-09-16T17:34:48.547Z,29.10
2022-09-16T17:37:17.131Z,27.73
2022-09-16T17:39:43.759Z,30.48
2022-09-16T17:42:10.425Z,31.15
2022-09-16T17:44:37.142Z,26.60
2022-09-16T17:47:03.889Z,28.15
2022-09-16T17:49:31.112Z,29.00
2022-09-16T17:51:59.757Z,29.02
2022-09-16T17:54:26.453Z,29.30
2022-09-16T17:56:53.111Z,29.52
2022-09-16T17:59:19.851Z,30.75
2022-09-16T18:01:46.690Z,35.65
2022-09-16T18:04:13.661Z,29.05
2022-09-16T18:06:42.917Z,38.17
2022-09-16T18:09:10.100Z,36.50
2022-09-16T18:11:37.554Z,34.08
2022-09-16T18:14:05.789Z,34.03
2022-09-16T18:16:32.867Z,29.95
2022-09-16T18:19:00.869Z,32.00
2022-09-16T18:21:28.200Z,27.55
2022-09-16T18:23:57.048Z,29.33
2022-09-16T18:26:24.031Z,28.27
2022-09-16T18:29:09.514Z,29.75
2022-09-16T18:31:37.668Z,28.85
2022-09-16T18:34:04.980Z,32.20
2022-09-16T18:36:33.451Z,35.83
2022-09-16T18:39:00.222Z,35.50
2022-09-16T18:41:29.471Z,27.95
2022-09-16T18:44:01.300Z,31.42
2022-09-16T18:46:33.190Z,26.60
2022-09-16T18:49:00.744Z,33.50
2022-09-16T18:51:32.968Z,26.65
2022-09-16T18:54:02.335Z,34.33
2022-09-16T18:56:31.959Z,30.50
2022-09-16T18:59:23.388Z,31.15
2022-09-16T19:01:55.018Z,30.42
2022-09-16T19:04:24.192Z,30.40
2022-09-16T19:06:53.047Z,30.17
2022-09-16T19:14:14.313Z,24.17
2022-09-16T19:16:43.028Z,22.38
2022-09-16T19:19:11.593Z,27.42
2022-09-16T19:21:38.601Z,27.50
2022-09-16T19:24:07.627Z,23.92
2022-09-16T19:26:35.713Z,36.97
2022-09-16T19:29:03.665Z,28.30
2022-09-16T19:31:31.501Z,32.30
2022-09-16T19:33:59.322Z,24.77
2022-09-16T19:36:28.297Z,20.75
2022-09-16T19:38:55.928Z,26.10
2022-09-16T19:41:25.302Z,28.15
2022-09-16T19:43:56.114Z,29.02
2022-09-16T19:46:22.864Z,31.83
2022-09-16T19:48:50.298Z,30.55
2022-09-16T19:51:18.771Z,28.10
2022-09-16T19:53:46.887Z,35.35
2022-09-16T19:56:17.066Z,34.08
2022-09-16T19:58:44.063Z,24.95
2022-09-16T20:01:13.331Z,27.85
2022-09-16T20:03:43.527Z,27.83
2022-09-16T20:06:21.725Z,35.03
2022-09-16T20:08:52.008Z,28.13
2022-09-16T20:11:22.087Z,24.67
2022-09-16T20:13:49.808Z,33.50
2022-09-16T20:16:17.834Z,29.13
2022-09-16T20:18:44.927Z,26.33
2022-09-16T20:21:14.503Z,26.77
2022-09-16T20:23:41.782Z,23.33
2022-09-16T20:26:09.749Z,23.73
2022-09-16T20:28:38.829Z,25.70
2022-09-16T20:31:05.946Z,26.75
2022-09-16T20:33:33.499Z,27.20
2022-09-16T20:36:04.220Z,29.15
2022-09-16T20:38:31.258Z,28.27
2022-09-16T20:40:58.167Z,26.73
2022-09-16T20:43:24.805Z,29.20
2022-09-16T20:45:51.487Z,28.33
2022-09-16T20:48:18.148Z,25.70
2022-09-16T20:50:44.759Z,23.05
2022-09-16T20:53:11.915Z,22.38
2022-09-16T20:55:38.533Z,28.13
2022-09-16T20:58:05.205Z,27.08
2022-09-16T21:00:32.925Z,22.55
2022-09-16T21:03:00.903Z,24.77
2022-09-16T21:05:27.565Z,28.83
2022-09-16T21:07:57.815Z,20.58
2022-09-16T21:10:24.706Z,22.83
2022-09-16T21:12:51.389Z,26.20
2022-09-16T21:15:18.083Z,25.98
2022-09-16T21:17:44.718Z,22.67
2022-09-16T21:20:11.372Z,22.42
2022-09-16T21:22:38.917Z,22.90
2022-09-16T21:25:06.116Z,29.08
2022-09-16T21:27:33.173Z,21.35
2022-09-16T21:29:59.850Z,23.95
2022-09-16T21:32:26.493Z,21.33
2022-09-16T21:34:53.145Z,23.88
2022-09-16T21:37:19.771Z,25.02
2022-09-16T21:39:46.420Z,26.13
2022-09-16T21:42:13.069Z,26.25
2022-09-16T21:44:39.725Z,20.23
2022-09-16T21:47:10.486Z,21.27
2022-09-16T21:49:37.418Z,22.52
2022-09-16T21:52:04.212Z,20.48
2022-09-16T21:54:31.238Z,25.85
2022-09-16T21:56:57.887Z,23.08
2022-09-16T21:59:24.797Z,24.25
2022-09-16T22:01:51.931Z,27.67
2022-09-16T22:04:23.373Z,22.30
2022-09-16T22:06:51.191Z,18.05
2022-09-16T22:09:18.068Z,25.77
2022-09-16T22:11:44.755Z,22.17
2022-09-16T22:14:12.438Z,22.30
2022-09-16T22:16:40.191Z,22.10
2022-09-16T22:19:09.614Z,25.08
2022-09-16T22:21:38.349Z,22.23
2022-09-16T22:24:05.529Z,23.60
2022-09-16T22:26:32.395Z,24.23
2022-09-16T22:28:59.325Z,25.63
2022-09-16T22:31:31.324Z,20.98
2022-09-16T22:34:00.941Z,22.02
2022-09-16T22:36:29.726Z,22.33
2022-09-16T22:39:02.033Z,23.38
2022-09-16T22:41:29.350Z,27.38
2022-09-16T22:43:56.192Z,25.98
2022-09-16T22:46:28.179Z,24.98
2022-09-16T22:48:55.904Z,25.80
2022-09-16T22:51:22.670Z,27.50
2022-09-16T22:53:49.814Z,25.05
2022-09-16T22:56:18.850Z,29.45
2022-09-16T22:58:46.029Z,26.75
2022-09-16T23:01:17.877Z,29.15
2022-09-16T23:03:45.649Z,24.75
2022-09-16T23:06:14.654Z,30.70
2022-09-16T23:08:45.374Z,21.95
2022-09-16T23:11:14.693Z,33.30
2022-09-16T23:13:42.477Z,31.67
2022-09-16T23:16:28.457Z,39.63
2022-09-16T23:18:56.504Z,32.40
2022-09-16T23:21:23.942Z,37.60
2022-09-16T23:23:53.162Z,36.17
2022-09-16T23:26:22.320Z,45.33
2022-09-16T23:28:53.746Z,38.67
2022-09-16T23:31:22.645Z,41.08
2022-09-16T23:33:49.552Z,41.65
2022-09-16T23:36:17.705Z,44.53
2022-09-16T23:38:45.982Z,41.03
2022-09-16T23:41:19.817Z,39.53
2022-09-16T23:43:47.940Z,37.20
2022-09-16T23:46:16.895Z,37.13
2022-09-16T23:48:44.287Z,35.45
2022-09-16T23:51:12.237Z,38.72
2022-09-16T23:53:39.306Z,34.20
2022-09-16T23:56:10.208Z,37.60
2022-09-16T23:58:37.078Z,27.95
